createdAt,value
2022-12-03T00:00:17.135Z,98658.84
2022-12-03T00:02:44.135Z,98660.78
2022-12-03T00:05:11.300Z,98668.94
2022-12-03T00:07:38.429Z,98675.06
2022-12-03T00:10:06.392Z,98670.06
2022-12-03T00:12:33.303Z,98680.59
2022-12-03T00:15:00.204Z,98680.22
2022-12-03T00:17:27.065Z,98678.16
2022-12-03T00:19:53.775Z,98674.16
2022-12-03T00:22:20.643Z,98678.03
2022-12-03T00:24:47.531Z,98676.06
2022-12-03T00:27:14.413Z,98672.91
2022-12-03T00:29:41.286Z,98677.13
2022-12-03T00:32:08.144Z,98672.09
2022-12-03T00:34:34.823Z,98681.44
2022-12-03T00:37:01.756Z,98680.03
2022-12-03T00:39:28.691Z,98689.59
2022-12-03T00:41:55.564Z,98690.06
2022-12-03T00:44:22.455Z,98691.81
2022-12-03T00:46:49.416Z,98692.69
2022-12-03T00:49:16.293Z,98693.19
2022-12-03T00:51:42.950Z,98695.06
2022-12-03T00:54:09.842Z,98689.59
2022-12-03T00:56:36.681Z,98700.97
2022-12-03T00:59:03.389Z,98693.44
2022-12-03T01:01:30.397Z,98702.12
2022-12-03T01:03:57.327Z,98694.41
2022-12-03T01:06:24.230Z,98699.44
2022-12-03T01:08:51.130Z,98700.94
2022-12-03T01:11:36.477Z,98695.72
2022-12-03T01:14:04.395Z,98685.62
2022-12-03T01:16:31.353Z,98695.94
2022-12-03T01:18:58.261Z,98701.19
2022-12-03T01:21:25.136Z,98696.41
2022-12-03T01:23:52.044Z,98689.22
2022-12-03T01:26:18.896Z,98691.50
2022-12-03T01:28:45.594Z,98688.34
2022-12-03T01:31:31.229Z,98688.06
2022-12-03T01:33:58.160Z,98691.56
2022-12-03T01:36:25.055Z,98685.28
2022-12-03T01:38:51.911Z,98693.44
2022-12-03T01:41:19.295Z,98689.53
2022-12-03T01:43:46.808Z,98688.97
2022-12-03T01:46:19.492Z,98689.81
2022-12-03T01:48:47.181Z,98688.47
2022-12-03T01:51:14.713Z,98688.72
2022-12-03T01:53:42.079Z,98681.63
2022-12-03T01:56:12.045Z,98680.28
2022-12-03T01:58:39.374Z,98685.00
2022-12-03T02:01:17.684Z,98680.53
2022-12-03T02:03:45.732Z,98672.19
2022-12-03T02:06:17.437Z,98672.63
2022-12-03T02:08:44.922Z,98673.44
2022-12-03T02:11:32.551Z,98678.62
2022-12-03T02:14:06.377Z,98668.97
2022-12-03T02:16:35.498Z,98663.81
2022-12-03T02:19:02.689Z,98668.16
2022-12-03T02:21:47.981Z,98677.59
2022-12-03T02:24:48.191Z,98681.25
2022-12-03T02:27:15.057Z,98681.63
2022-12-03T02:29:41.738Z,98679.19
2022-12-03T02:32:08.594Z,98676.16
2022-12-03T02:34:36.626Z,98678.56
2022-12-03T02:37:03.343Z,98686.69
2022-12-03T02:39:32.239Z,98687.19
2022-12-03T02:42:17.497Z,98689.53
2022-12-03T02:44:44.427Z,98684.94
2022-12-03T02:47:11.454Z,98685.94
2022-12-03T02:49:38.331Z,98680.19
2022-12-03T02:52:04.985Z,98682.97
2022-12-03T02:54:31.902Z,98677.91
2022-12-03T02:56:58.854Z,98677.34
2022-12-03T02:59:25.841Z,98684.81
2022-12-03T03:01:52.731Z,98691.13
2022-12-03T03:04:19.711Z,98685.19
2022-12-03T03:06:47.027Z,98688.16
2022-12-03T03:09:13.963Z,98682.53
2022-12-03T03:11:40.874Z,98677.78
2022-12-03T03:14:07.737Z,98678.41
2022-12-03T03:16:34.916Z,98680.53
2022-12-03T03:19:02.340Z,98679.81
2022-12-03T03:21:29.240Z,98689.41
2022-12-03T03:23:56.120Z,98684.88
2022-12-03T03:26:23.136Z,98687.38
2022-12-03T03:28:51.837Z,98682.50
2022-12-03T03:31:22.158Z,98689.56
2022-12-03T03:33:50.231Z,98687.81
2022-12-03T03:36:17.443Z,98687.81
2022-12-03T03:38:44.370Z,98686.44
2022-12-03T03:41:11.633Z,98677.34
2022-12-03T03:43:39.236Z,98677.06
2022-12-03T03:46:07.069Z,98679.59
2022-12-03T03:48:35.270Z,98685.94
2022-12-03T03:51:09.610Z,98688.31
2022-12-03T03:53:42.656Z,98682.16
2022-12-03T03:56:10.165Z,98681.78
2022-12-03T03:58:37.928Z,98675.94
2022-12-03T04:01:04.901Z,98674.56
2022-12-03T04:03:31.784Z,98681.19
2022-12-03T04:05:58.498Z,98671.66
2022-12-03T04:08:25.419Z,98683.81
2022-12-03T04:11:10.863Z,98685.06
2022-12-03T04:13:37.743Z,98682.06
2022-12-03T04:16:04.806Z,98677.91
2022-12-03T04:18:43.859Z,98686.12
2022-12-03T04:21:34.962Z,98692.66
2022-12-03T04:24:02.169Z,98683.47
2022-12-03T04:26:47.801Z,98692.09
2022-12-03T04:29:14.816Z,98692.50
2022-12-03T04:32:00.878Z,98698.44
2022-12-03T04:34:46.287Z,98697.84
2022-12-03T04:37:13.267Z,98693.91
2022-12-03T04:39:40.332Z,98700.28
2022-12-03T04:42:07.538Z,98703.66
2022-12-03T04:44:36.553Z,98704.44
2022-12-03T04:47:20.389Z,98706.63
2022-12-03T04:49:49.833Z,98708.44
2022-12-03T04:52:18.657Z,98711.31
2022-12-03T04:54:45.728Z,98699.13
2022-12-03T04:57:12.999Z,98681.13
2022-12-03T04:59:40.130Z,98684.41
2022-12-03T05:02:07.450Z,98687.75
2022-12-03T05:04:34.620Z,98698.56
2022-12-03T05:07:01.514Z,98702.44
2022-12-03T05:09:28.371Z,98703.75
2022-12-03T05:11:55.036Z,98700.13
2022-12-03T05:14:21.987Z,98710.81
2022-12-03T05:16:49.003Z,98712.25
2022-12-03T05:19:15.929Z,98706.66
2022-12-03T05:21:42.767Z,98701.12
2022-12-03T05:24:09.465Z,98695.88
2022-12-03T05:26:36.318Z,98695.56
2022-12-03T05:29:02.970Z,98710.69
2022-12-03T05:31:29.927Z,98704.59
2022-12-03T05:33:56.857Z,98692.50
2022-12-03T05:36:25.483Z,98690.22
2022-12-03T05:38:52.643Z,98690.72
2022-12-03T05:41:38.031Z,98694.62
2022-12-03T05:44:04.983Z,98691.53
2022-12-03T05:46:34.227Z,98693.09
2022-12-03T05:49:01.206Z,98700.09
2022-12-03T05:51:28.196Z,98699.59
2022-12-03T05:53:54.879Z,98694.88
2022-12-03T05:56:21.723Z,98710.44
2022-12-03T05:58:48.407Z,98700.97
2022-12-03T06:01:15.311Z,98697.91
2022-12-03T06:03:42.307Z,98697.31
2022-12-03T06:06:09.259Z,98698.88
2022-12-03T06:08:36.145Z,98706.00
2022-12-03T06:11:03.047Z,98703.91
2022-12-03T06:13:29.888Z,98706.50
2022-12-03T06:15:56.648Z,98711.94
2022-12-03T06:18:23.578Z,98708.78
2022-12-03T06:20:50.431Z,98704.03
2022-12-03T06:23:17.125Z,98708.81
2022-12-03T06:25:43.986Z,98705.37
2022-12-03T06:28:10.668Z,98710.25
2022-12-03T06:30:40.185Z,98703.00
2022-12-03T06:33:07.111Z,98713.63
2022-12-03T06:35:33.983Z,98712.25
2022-12-03T06:38:00.996Z,98718.41
2022-12-03T06:40:27.866Z,98718.88
2022-12-03T06:42:54.529Z,98722.09
2022-12-03T06:45:21.469Z,98714.63
2022-12-03T06:47:48.367Z,98713.75
2022-12-03T06:50:15.290Z,98713.34
2022-12-03T06:52:42.164Z,98716.53
2022-12-03T06:55:09.687Z,98724.19
2022-12-03T06:57:36.574Z,98722.09
2022-12-03T07:00:06.481Z,98734.66
2022-12-03T07:02:33.484Z,98730.84
2022-12-03T07:05:00.417Z,98745.47
2022-12-03T07:07:27.151Z,98748.09
2022-12-03T07:09:54.210Z,98744.59
2022-12-03T07:12:21.087Z,98749.44
2022-12-03T07:14:47.918Z,98756.66
2022-12-03T07:17:14.630Z,98760.56
2022-12-03T07:19:41.482Z,98754.28
2022-12-03T07:22:08.164Z,98750.19
2022-12-03T07:24:35.020Z,98750.75
2022-12-03T07:27:01.874Z,98753.31
2022-12-03T07:29:28.575Z,98752.28
2022-12-03T07:31:55.525Z,98753.00
2022-12-03T07:34:22.433Z,98751.34
2022-12-03T07:36:49.207Z,98739.53
2022-12-03T07:39:16.133Z,98748.88
2022-12-03T07:41:42.967Z,98741.69
2022-12-03T07:44:14.335Z,98745.13
2022-12-03T07:46:43.017Z,98749.06
2022-12-03T07:49:10.125Z,98754.94
2022-12-03T07:51:37.052Z,98746.91
2022-12-03T07:54:04.383Z,98751.75
2022-12-03T07:56:31.269Z,98753.72
2022-12-03T07:58:58.128Z,98762.16
2022-12-03T08:01:24.877Z,98747.34
2022-12-03T08:03:51.809Z,98754.81
2022-12-03T08:06:18.693Z,98749.81
2022-12-03T08:08:45.658Z,98731.06
2022-12-03T08:11:15.111Z,98730.88
2022-12-03T08:13:42.041Z,98736.72
2022-12-03T08:16:18.415Z,98735.22
2022-12-03T08:18:46.495Z,98737.53
2022-12-03T08:21:14.984Z,98738.75
2022-12-03T08:23:42.018Z,98739.19
2022-12-03T08:26:20.942Z,98749.06
2022-12-03T08:28:47.907Z,98746.03
2022-12-03T08:31:26.830Z,98748.72
2022-12-03T08:34:14.287Z,98745.09
2022-12-03T08:36:41.174Z,98756.38
2022-12-03T08:39:22.978Z,98749.41
2022-12-03T08:42:33.981Z,98754.47
2022-12-03T08:45:30.427Z,98752.56
2022-12-03T08:47:58.664Z,98753.91
2022-12-03T08:50:31.100Z,98750.06
2022-12-03T08:53:25.980Z,98748.69
2022-12-03T08:55:54.378Z,98751.19
2022-12-03T08:58:21.163Z,98756.25
2022-12-03T09:00:47.932Z,98756.97
2022-12-03T09:03:17.162Z,98762.00
2022-12-03T09:05:44.049Z,98761.53
2022-12-03T09:08:10.977Z,98761.81
2022-12-03T09:10:38.844Z,98768.34
2022-12-03T09:13:05.697Z,98761.38
2022-12-03T09:15:32.673Z,98760.00
2022-12-03T09:17:59.550Z,98753.56
2022-12-03T09:20:26.430Z,98758.41
2022-12-03T09:22:53.311Z,98749.88
2022-12-03T09:25:20.206Z,98752.34
2022-12-03T09:27:47.054Z,98752.66
2022-12-03T09:30:13.855Z,98751.19
2022-12-03T09:32:40.716Z,98753.53
2022-12-03T09:35:07.838Z,98750.53
2022-12-03T09:37:34.694Z,98752.03
2022-12-03T09:40:01.370Z,98748.31
2022-12-03T09:42:28.522Z,98753.25
2022-12-03T09:44:55.939Z,98747.41
2022-12-03T09:47:25.771Z,98742.38
2022-12-03T09:49:53.239Z,98733.81
2022-12-03T09:52:25.389Z,98731.34
2022-12-03T09:54:53.834Z,98724.53
2022-12-03T09:57:21.099Z,98725.53
2022-12-03T09:59:48.007Z,98710.94
2022-12-03T10:02:29.613Z,98716.53
2022-12-03T10:04:57.912Z,98717.50
2022-12-03T10:07:25.851Z,98704.06
2022-12-03T10:09:53.547Z,98703.00
2022-12-03T10:12:23.687Z,98701.78
2022-12-03T10:14:50.935Z,98698.19
2022-12-03T10:17:17.970Z,98710.06
2022-12-03T10:19:45.217Z,98704.13
2022-12-03T10:22:12.123Z,98696.56
2022-12-03T10:24:39.320Z,98702.47
2022-12-03T10:27:24.432Z,98703.59
2022-12-03T10:29:56.354Z,98703.84
2022-12-03T10:32:45.935Z,98698.84
2022-12-03T10:35:18.715Z,98690.87
2022-12-03T10:38:01.869Z,98699.59
2022-12-03T10:40:32.768Z,98697.03
2022-12-03T10:43:18.088Z,98695.88
2022-12-03T10:46:04.855Z,98695.03
2022-12-03T10:48:31.860Z,98689.25
2022-12-03T10:51:07.152Z,98680.22
2022-12-03T10:53:35.810Z,98680.97
2022-12-03T10:56:05.370Z,98673.41
2022-12-03T10:58:36.072Z,98673.81
2022-12-03T11:01:06.504Z,98661.94
2022-12-03T11:03:37.182Z,98659.94
2022-12-03T11:06:04.248Z,98655.03
2022-12-03T11:08:34.025Z,98660.56
2022-12-03T11:11:00.820Z,98663.28
2022-12-03T11:13:30.575Z,98657.75
2022-12-03T11:15:57.941Z,98655.44
2022-12-03T11:18:37.122Z,98650.53
2022-12-03T11:21:08.136Z,98642.38
2022-12-03T11:23:47.318Z,98648.78
2022-12-03T11:26:27.334Z,98654.94
2022-12-03T11:28:56.818Z,98654.53
2022-12-03T11:31:40.869Z,98647.66
2022-12-03T11:34:20.540Z,98642.19
2022-12-03T11:37:13.015Z,98652.19
2022-12-03T11:39:49.989Z,98647.00
2022-12-03T11:42:25.918Z,98644.00
2022-12-03T11:45:04.881Z,98637.50
2022-12-03T11:47:34.722Z,98647.44
2022-12-03T11:50:01.699Z,98641.97
2022-12-03T11:52:38.775Z,98640.28
2022-12-03T11:55:19.118Z,98640.19
2022-12-03T11:57:46.222Z,98649.09
2022-12-03T12:00:19.854Z,98635.31
2022-12-03T12:02:46.789Z,98631.56
2022-12-03T12:05:39.718Z,98635.63
2022-12-03T12:08:18.945Z,98636.81
2022-12-03T12:10:49.823Z,98627.84
2022-12-03T12:13:32.111Z,98627.56
2022-12-03T12:16:00.163Z,98621.66
2022-12-03T12:18:41.904Z,98622.56
2022-12-03T12:21:43.129Z,98623.34
2022-12-03T12:24:30.415Z,98625.34
2022-12-03T12:27:01.905Z,98626.81
2022-12-03T12:29:28.892Z,98628.09
2022-12-03T12:32:11.175Z,98619.44
2022-12-03T12:34:39.604Z,98622.34
2022-12-03T12:37:14.851Z,98630.69
2022-12-03T12:39:41.856Z,98607.81
2022-12-03T12:42:30.400Z,98619.44
2022-12-03T12:45:22.861Z,98628.91
2022-12-03T12:48:09.953Z,98621.91
2022-12-03T12:50:41.886Z,98629.59
2022-12-03T12:53:12.995Z,98609.56
2022-12-03T12:55:40.207Z,98620.16
2022-12-03T12:58:19.595Z,98614.06
2022-12-03T13:00:51.325Z,98628.94
2022-12-03T13:03:21.835Z,98612.53
2022-12-03T13:05:50.203Z,98615.44
2022-12-03T13:08:39.263Z,98622.84
2022-12-03T13:11:06.678Z,98618.69
2022-12-03T13:13:44.258Z,98607.56
2022-12-03T13:16:27.140Z,98609.47
2022-12-03T13:18:55.927Z,98620.31
2022-12-03T13:21:39.758Z,98610.81
2022-12-03T13:24:38.677Z,98617.28
2022-12-03T13:27:17.572Z,98615.75
2022-12-03T13:29:45.647Z,98617.12
2022-12-03T13:32:16.557Z,98606.28
2022-12-03T13:34:44.789Z,98614.41
2022-12-03T13:37:18.853Z,98611.78
2022-12-03T13:39:53.508Z,98616.16
2022-12-03T13:42:46.732Z,98617.75
2022-12-03T13:45:16.559Z,98632.94
2022-12-03T13:47:51.221Z,98624.13
2022-12-03T13:50:39.392Z,98619.91
2022-12-03T13:53:19.471Z,98615.59
2022-12-03T13:55:50.429Z,98623.03
2022-12-03T13:58:17.304Z,98623.34
2022-12-03T14:00:44.041Z,98619.25
2022-12-03T14:03:10.984Z,98613.00
2022-12-03T14:05:37.901Z,98609.03
2022-12-03T14:08:06.315Z,98615.41
2022-12-03T14:10:33.447Z,98619.75
2022-12-03T14:13:00.325Z,98612.81
2022-12-03T14:15:27.011Z,98597.56
2022-12-03T14:17:53.976Z,98605.03
2022-12-03T14:20:22.831Z,98602.94
2022-12-03T14:22:49.734Z,98604.72
2022-12-03T14:25:16.641Z,98594.78
2022-12-03T14:27:43.536Z,98604.88
2022-12-03T14:30:11.068Z,98603.22
2022-12-03T14:32:37.909Z,98612.69
2022-12-03T14:35:09.698Z,98616.59
2022-12-03T14:37:37.222Z,98619.63
2022-12-03T14:40:07.249Z,98612.28
2022-12-03T14:42:34.116Z,98616.72
2022-12-03T14:45:00.764Z,98621.03
2022-12-03T14:47:27.669Z,98624.91
2022-12-03T14:49:54.794Z,98626.81
2022-12-03T14:52:21.835Z,98628.37
2022-12-03T14:54:48.735Z,98635.13
2022-12-03T14:57:15.916Z,98635.56
2022-12-03T14:59:43.666Z,98637.97
2022-12-03T15:02:11.578Z,98632.22
2022-12-03T15:04:39.698Z,98643.66
2022-12-03T15:07:07.606Z,98632.41
2022-12-03T15:09:34.750Z,98629.97
2022-12-03T15:12:01.682Z,98631.31
2022-12-03T15:14:28.583Z,98633.31
2022-12-03T15:16:55.693Z,98634.19
2022-12-03T15:19:23.595Z,98651.94
2022-12-03T15:21:50.475Z,98640.97
2022-12-03T15:24:17.368Z,98640.38
2022-12-03T15:26:44.288Z,98643.13
2022-12-03T15:29:11.323Z,98643.91
2022-12-03T15:31:38.196Z,98648.78
2022-12-03T15:34:05.403Z,98650.69
2022-12-03T15:36:32.239Z,98651.91
2022-12-03T15:38:58.995Z,98646.91
2022-12-03T15:41:29.332Z,98633.16
2022-12-03T15:43:58.405Z,98644.75
2022-12-03T15:46:26.313Z,98639.06
2022-12-03T15:48:53.507Z,98641.56
2022-12-03T15:51:20.396Z,98635.34
2022-12-03T15:53:47.350Z,98637.09
2022-12-03T15:56:14.199Z,98639.44
2022-12-03T15:58:41.035Z,98633.09
2022-12-03T16:01:09.514Z,98622.50
2022-12-03T16:03:36.773Z,98615.38
2022-12-03T16:06:03.954Z,98604.84
2022-12-03T16:08:30.987Z,98605.50
2022-12-03T16:10:58.063Z,98606.00
2022-12-03T16:13:25.019Z,98612.63
2022-12-03T16:15:51.943Z,98606.06
2022-12-03T16:18:18.836Z,98609.00
2022-12-03T16:20:46.495Z,98606.31
2022-12-03T16:23:13.441Z,98606.78
2022-12-03T16:25:40.322Z,98602.66
2022-12-03T16:28:07.228Z,98609.41
2022-12-03T16:30:36.352Z,98624.03
2022-12-03T16:33:03.351Z,98636.66
2022-12-03T16:35:30.192Z,98632.03
2022-12-03T16:37:56.828Z,98633.88
2022-12-03T16:40:23.729Z,98627.28
2022-12-03T16:42:50.609Z,98627.94
2022-12-03T16:45:40.819Z,98623.25
2022-12-03T16:48:07.656Z,98622.16
2022-12-03T16:50:37.331Z,98625.56
2022-12-03T16:53:04.279Z,98637.78
2022-12-03T16:55:31.151Z,98632.38
2022-12-03T16:57:58.024Z,98631.03
2022-12-03T17:00:26.948Z,98618.84
2022-12-03T17:02:53.878Z,98623.50
2022-12-03T17:05:20.795Z,98631.41
2022-12-03T17:07:47.510Z,98620.19
2022-12-03T17:10:14.545Z,98627.88
2022-12-03T17:13:08.942Z,98626.44
2022-12-03T17:15:28.521Z,98643.00
2022-12-03T17:17:55.608Z,98633.22
2022-12-03T17:20:22.571Z,98644.13
2022-12-03T17:22:49.465Z,98647.91
2022-12-03T17:25:16.875Z,98634.56
2022-12-03T17:27:45.580Z,98635.97
2022-12-03T17:30:13.332Z,98622.69
2022-12-03T17:32:40.375Z,98635.13
2022-12-03T17:35:07.836Z,98627.91
2022-12-03T17:37:35.127Z,98634.72
2022-12-03T17:40:02.549Z,98624.09
2022-12-03T17:42:29.420Z,98637.72
2022-12-03T17:44:56.369Z,98632.16
2022-12-03T17:47:23.199Z,98642.88
2022-12-03T17:49:52.260Z,98639.88
2022-12-03T17:52:19.355Z,98642.59
2022-12-03T17:57:33.068Z,98635.09
2022-12-03T17:59:59.823Z,98628.22
2022-12-03T18:02:26.648Z,98635.22
2022-12-03T18:04:53.348Z,98630.25
2022-12-03T18:07:20.285Z,98634.13
2022-12-03T18:09:47.238Z,98627.25
2022-12-03T18:12:14.088Z,98632.41
2022-12-03T18:14:40.814Z,98632.31
2022-12-03T18:17:07.684Z,98625.31
2022-12-03T18:19:34.594Z,98634.59
2022-12-03T18:22:01.459Z,98630.44
2022-12-03T18:24:28.120Z,98638.91
2022-12-03T18:26:55.027Z,98642.88
2022-12-03T18:29:21.878Z,98639.88
2022-12-03T18:44:56.233Z,98635.00
2022-12-03T18:47:26.596Z,98635.16
2022-12-03T18:49:54.079Z,98645.75
2022-12-03T18:52:23.162Z,98643.47
2022-12-03T18:54:50.031Z,98640.06
2022-12-03T18:57:16.749Z,98654.69
2022-12-03T18:59:43.667Z,98654.84
2022-12-03T19:02:53.868Z,98653.41
2022-12-03T19:05:07.033Z,98655.09
2022-12-03T19:07:33.995Z,98644.34
2022-12-03T19:10:00.954Z,98639.53
2022-12-03T19:12:27.955Z,98650.53
2022-12-03T19:14:54.847Z,98640.12
2022-12-03T19:17:21.896Z,98646.03
2022-12-03T19:19:48.820Z,98647.97
2022-12-03T19:22:15.809Z,98650.00
2022-12-03T19:27:09.911Z,98656.19
2022-12-03T19:29:36.793Z,98657.22
2022-12-03T19:32:04.014Z,98655.31
2022-12-03T19:34:30.957Z,98655.59
2022-12-03T19:36:57.820Z,98657.66
2022-12-03T19:39:25.009Z,98661.09
2022-12-03T19:41:51.911Z,98652.56
2022-12-03T19:44:19.357Z,98643.87
2022-12-03T19:46:46.252Z,98652.19
2022-12-03T19:49:13.127Z,98652.37
2022-12-03T19:51:40.003Z,98653.16
2022-12-03T19:54:10.271Z,98654.78
2022-12-03T19:56:37.537Z,98650.13
2022-12-03T19:59:05.342Z,98649.59
2022-12-03T20:01:34.356Z,98647.47
2022-12-03T20:04:03.216Z,98641.69
2022-12-03T20:06:32.584Z,98640.66
2022-12-03T20:09:06.663Z,98637.66
2022-12-03T20:11:34.812Z,98648.22
2022-12-03T20:14:05.138Z,98643.94
2022-12-03T20:16:32.258Z,98647.06
2022-12-03T20:19:01.481Z,98649.88
2022-12-03T20:21:30.023Z,98649.00
2022-12-03T20:23:56.907Z,98647.75
2022-12-03T20:26:24.866Z,98653.75
2022-12-03T20:28:54.197Z,98642.78
2022-12-03T20:31:23.151Z,98640.31
2022-12-03T20:33:51.941Z,98640.81
2022-12-03T20:36:20.839Z,98635.69
2022-12-03T20:38:47.754Z,98631.78
2022-12-03T20:41:18.596Z,98632.22
2022-12-03T20:43:45.976Z,98621.97
2022-12-03T20:46:25.626Z,98629.66
2022-12-03T20:48:54.211Z,98625.84
2022-12-03T20:51:22.977Z,98626.44
2022-12-03T20:53:49.987Z,98623.31
2022-12-03T20:56:20.358Z,98629.81
2022-12-03T20:58:51.138Z,98627.78
2022-12-03T21:01:19.334Z,98634.75
2022-12-03T21:03:47.247Z,98630.63
2022-12-03T21:06:14.968Z,98643.63
2022-12-03T21:08:43.083Z,98640.84
2022-12-03T21:11:12.101Z,98641.47
2022-12-03T21:13:41.759Z,98650.66
2022-12-03T21:16:10.612Z,98649.50
2022-12-03T21:18:37.771Z,98650.16
2022-12-03T21:21:05.730Z,98649.78
2022-12-03T21:23:33.559Z,98656.16
2022-12-03T21:26:17.537Z,98653.53
2022-12-03T21:28:50.283Z,98654.22
2022-12-03T21:31:19.703Z,98654.34
2022-12-03T21:33:47.021Z,98647.16
2022-12-03T21:36:16.101Z,98650.72
2022-12-03T21:38:44.434Z,98653.66
2022-12-03T21:41:12.408Z,98634.50
2022-12-03T21:43:39.318Z,98637.66
2022-12-03T21:47:11.823Z,98641.16
2022-12-03T21:48:58.104Z,98636.22
2022-12-03T21:51:24.757Z,98623.91
2022-12-03T21:53:51.677Z,98628.37
2022-12-03T21:56:19.604Z,98623.66
2022-12-03T21:58:46.982Z,98632.69
2022-12-03T22:01:19.950Z,98636.87
2022-12-03T22:03:47.263Z,98630.06
2022-12-03T22:06:14.557Z,98626.44
2022-12-03T22:08:41.795Z,98629.78
2022-12-03T22:11:13.330Z,98628.28
2022-12-03T22:13:41.198Z,98632.25
2022-12-03T22:16:11.127Z,98626.12
2022-12-03T22:18:38.515Z,98610.47
2022-12-03T22:21:07.219Z,98609.97
2022-12-03T22:23:34.428Z,98613.47
2022-12-03T22:26:03.831Z,98605.91
2022-12-03T22:28:30.825Z,98612.63
2022-12-03T22:30:57.779Z,98610.16
2022-12-03T22:33:25.214Z,98599.63
2022-12-03T22:36:00.336Z,98605.78
2022-12-03T22:38:29.085Z,98615.81
2022-12-03T22:40:57.085Z,98617.22
2022-12-03T22:43:24.741Z,98616.16
2022-12-03T22:45:55.671Z,98605.28
2022-12-03T22:48:23.810Z,98607.47
2022-12-03T22:50:51.832Z,98604.38
2022-12-03T22:53:19.270Z,98602.69
2022-12-03T22:55:56.389Z,98601.53
2022-12-03T22:58:23.410Z,98590.94
2022-12-03T23:00:50.484Z,98592.09
2022-12-03T23:03:17.678Z,98582.94
2022-12-03T23:05:44.830Z,98599.03
2022-12-03T23:08:15.970Z,98599.75
2022-12-03T23:10:44.843Z,98593.66
2022-12-03T23:13:12.302Z,98588.69
2022-12-03T23:15:47.504Z,98594.59
2022-12-03T23:18:14.571Z,98583.63
2022-12-03T23:20:52.543Z,98566.44
2022-12-03T23:23:20.854Z,98570.41
2022-12-03T23:26:05.547Z,98583.75
2022-12-03T23:28:34.426Z,98580.59
2022-12-03T23:31:01.494Z,98588.00
2022-12-03T23:33:28.927Z,98594.56
2022-12-03T23:35:55.760Z,98580.16
2022-12-03T23:38:22.562Z,98583.66
2022-12-03T23:40:49.827Z,98579.16
2022-12-03T23:43:16.793Z,98572.44
2022-12-03T23:45:43.672Z,98571.13
2022-12-03T23:48:10.625Z,98572.69
2022-12-03T23:50:41.504Z,98573.06
2022-12-03T23:53:09.150Z,98566.09
2022-12-03T23:55:40.004Z,98565.97
2022-12-03T23:58:06.892Z,98560.47
